Time;durP1;ratioP1;P1;durP2;ratioP2;P2;SDS_P1;SDS_P2;PMS_P1;PMS_P2;Temp;Humidity;BMP_temperature;BMP_pressure;BME280_temperature;BME280_humidity;BME280_pressure;Samples;Min_cycle;Max_cycle;Signal;HPM_P1;HPM_P2
2022/06/09 00:00:04;;;;;;;8.40;3.20;;;;;;;12.85;100.00;100104.19;680828;28;801;-44
2022/06/09 00:00:26;;;;;;;9.93;3.63;;;;;;;12.82;100.00;100104.25;683280;28;1283;-44
2022/06/09 00:00:53;;;;;;;11.25;3.67;;;;;;;12.77;100.00;100100.84;682489;28;1231;-44
2022/06/09 00:01:18;;;;;;;8.20;3.60;;;;;;;12.77;100.00;100101.72;681216;28;4431;-43
2022/06/09 00:01:48;;;;;;;8.55;3.40;;;;;;;12.77;100.00;100098.25;682448;28;1417;-46
2022/06/09 00:02:09;;;;;;;8.82;3.80;;;;;;;12.76;100.00;100094.72;682904;28;1314;-45
2022/06/09 00:02:30;;;;;;;9.55;3.80;;;;;;;12.76;100.00;100114.88;682914;28;1298;-46
2022/06/09 00:02:54;;;;;;;10.93;3.58;;;;;;;12.82;100.00;100098.13;679547;28;1281;-44
2022/06/09 00:03:20;;;;;;;9.05;3.55;;;;;;;12.86;100.00;100102.41;680323;29;1224;-45
2022/06/09 00:03:48;;;;;;;9.30;3.40;;;;;;;12.83;100.00;100105.94;679712;28;1275;-43
2022/06/09 00:04:22;;;;;;;7.72;3.58;;;;;;;12.92;100.00;100099.66;680990;28;4481;-44
2022/06/09 00:04:43;;;;;;;9.10;3.35;;;;;;;12.91;100.00;100104.00;680929;28;1055;-46
2022/06/09 00:05:04;;;;;;;8.30;3.35;;;;;;;12.90;100.00;100107.56;683387;28;920;-44
2022/06/09 00:05:26;;;;;;;10.18;3.67;;;;;;;12.87;100.00;100102.34;681854;28;1720;-44
2022/06/09 00:05:46;;;;;;;11.63;3.50;;;;;;;12.87;100.00;100106.75;682104;28;1292;-46
2022/06/09 00:06:09;;;;;;;11.65;3.35;;;;;;;12.85;100.00;100100.66;682996;28;1102;-44
2022/06/09 00:06:38;;;;;;;9.57;3.55;;;;;;;12.83;100.00;100105.94;682676;28;1236;-43
2022/06/09 00:07:02;;;;;;;9.63;3.95;;;;;;;12.82;100.00;100108.63;681556;28;1450;-44
2022/06/09 00:07:23;;;;;;;10.05;3.65;;;;;;;12.80;100.00;100108.66;682074;28;4308;-45
2022/06/09 00:07:46;;;;;;;9.57;3.63;;;;;;;12.84;100.00;100110.31;682844;28;1081;-44
2022/06/09 00:08:08;;;;;;;9.38;3.70;;;;;;;12.81;100.00;100107.75;683188;28;1125;-46
2022/06/09 00:08:30;;;;;;;9.02;3.50;;;;;;;12.80;100.00;100108.66;681718;28;998;-43
2022/06/09 00:08:52;;;;;;;9.73;3.70;;;;;;;12.84;100.00;100112.94;682071;28;1298;-44
2022/06/09 00:09:16;;;;;;;11.90;3.83;;;;;;;12.82;100.00;100109.50;682685;28;1093;-43
2022/06/09 00:10:00;;;;;;;10.90;4.00;;;;;;;12.80;100.00;100111.28;684779;28;1461;-44
2022/06/09 00:10:27;;;;;;;8.20;3.63;;;;;;;12.82;100.00;100106.88;682346;28;4472;-43
2022/06/09 00:10:52;;;;;;;10.13;3.47;;;;;;;12.87;100.00;100110.22;682015;28;1390;-43
2022/06/09 00:11:18;;;;;;;8.52;3.40;;;;;;;12.85;100.00;100108.53;681849;28;1023;-44
2022/06/09 00:11:41;;;;;;;8.68;3.67;;;;;;;12.81;100.00;100117.38;682059;28;2828;-43
2022/06/09 00:12:01;;;;;;;12.07;3.67;;;;;;;12.78;100.00;100108.69;679767;29;1249;-46
2022/06/09 00:12:23;;;;;;;9.85;3.60;;;;;;;12.77;100.00;100111.34;681860;28;1236;-44
2022/06/09 00:12:46;;;;;;;11.18;3.97;;;;;;;12.76;100.00;100105.22;681808;28;1366;-44
2022/06/09 00:13:07;;;;;;;10.40;3.65;;;;;;;12.75;100.00;100115.75;683367;28;828;-45
2022/06/09 00:13:28;;;;;;;9.20;3.60;;;;;;;12.73;100.00;100118.41;682190;28;4274;-44
2022/06/09 00:13:49;;;;;;;8.27;3.60;;;;;;;12.72;100.00;100119.34;681500;28;1476;-46
2022/06/09 00:14:10;;;;;;;9.00;3.50;;;;;;;12.74;100.00;100114.91;678899;29;1378;-44
2022/06/09 00:14:30;;;;;;;9.63;3.27;;;;;;;12.75;100.00;100113.13;680131;29;1281;-44
2022/06/09 00:14:51;;;;;;;8.93;3.30;;;;;;;12.73;100.00;100113.16;678696;28;1197;-43
2022/06/09 00:15:13;;;;;;;10.57;3.17;;;;;;;12.75;100.00;100113.13;678001;29;1130;-43
2022/06/09 00:15:34;;;;;;;10.68;3.08;;;;;;;12.73;100.00;100110.53;678092;29;1161;-44
2022/06/09 00:15:54;;;;;;;11.30;3.63;;;;;;;12.72;100.00;100113.22;679399;28;1028;-43
2022/06/09 00:16:15;;;;;;;10.93;3.50;;;;;;;12.72;100.00;100114.09;682362;28;4554;-46
2022/06/09 00:16:37;;;;;;;12.13;3.83;;;;;;;12.69;100.00;100111.50;683351;28;3609;-43
2022/06/09 00:16:57;;;;;;;10.38;4.10;;;;;;;12.65;100.00;100111.63;682395;28;1503;-45
2022/06/09 00:17:18;;;;;;;12.27;3.80;;;;;;;12.69;100.00;100111.50;684431;28;1611;-43
2022/06/09 00:17:39;;;;;;;10.98;3.50;;;;;;;12.70;100.00;100115.03;682480;28;1399;-43
2022/06/09 00:18:00;;;;;;;9.70;3.60;;;;;;;12.73;100.00;100114.94;684719;28;1085;-44
2022/06/09 00:18:21;;;;;;;8.90;3.35;;;;;;;12.73;100.00;100113.16;680876;28;1016;-44
2022/06/09 00:18:42;;;;;;;10.02;3.50;;;;;;;12.73;100.00;100109.69;680499;28;1280;-45
2022/06/09 00:19:05;;;;;;;8.93;3.10;;;;;;;12.68;100.00;100111.56;681812;28;1373;-43
2022/06/09 00:19:25;;;;;;;9.15;3.30;;;;;;;12.71;100.00;100112.34;681415;28;4561;-43
2022/06/09 00:19:46;;;;;;;10.35;3.28;;;;;;;12.72;100.00;100113.22;682413;28;2101;-44
2022/06/09 00:20:07;;;;;;;11.33;3.30;;;;;;;12.75;100.00;100110.50;680205;28;1042;-44
2022/06/09 00:20:31;;;;;;;10.20;3.40;;;;;;;12.74;100.00;100116.69;680579;29;1264;-43
2022/06/09 00:20:51;;;;;;;9.30;3.53;;;;;;;12.72;100.00;100114.09;679901;28;1338;-44
2022/06/09 00:21:12;;;;;;;10.60;3.05;;;;;;;12.68;100.00;100117.69;678830;29;796;-47
2022/06/09 00:21:33;;;;;;;8.47;3.20;;;;;;;12.64;100.00;100121.25;679800;29;1331;-48
2022/06/09 00:21:53;;;;;;;8.90;3.40;;;;;;;12.63;100.00;100123.88;679733;28;1440;-43
2022/06/09 00:22:14;;;;;;;8.07;3.03;;;;;;;12.64;100.00;100120.38;683130;28;4473;-44
2022/06/09 00:22:34;;;;;;;8.48;3.17;;;;;;;12.69;100.00;100119.38;682350;28;1385;-44
2022/06/09 00:22:55;;;;;;;10.97;3.23;;;;;;;12.71;100.00;100117.59;681816;28;1460;-43
2022/06/09 00:23:17;;;;;;;9.80;3.35;;;;;;;12.71;100.00;100122.84;681307;28;976;-44
2022/06/09 00:23:38;;;;;;;9.18;3.30;;;;;;;12.69;100.00;100126.41;682389;28;1544;-46
2022/06/09 00:23:59;;;;;;;10.35;3.20;;;;;;;12.66;100.00;100121.22;681865;28;1017;-43
2022/06/09 00:24:19;;;;;;;11.30;3.10;;;;;;;12.62;100.00;100125.66;682741;28;1571;-44
2022/06/09 00:24:42;;;;;;;7.70;2.90;;;;;;;12.60;100.00;100125.69;683436;28;1267;-45
2022/06/09 00:25:03;;;;;;;8.40;3.30;;;;;;;12.59;100.00;100112.63;683608;28;1457;-45
2022/06/09 00:25:26;;;;;;;10.15;3.25;;;;;;;12.59;100.00;100123.97;683121;28;4353;-44
2022/06/09 00:25:46;;;;;;;9.88;3.22;;;;;;;12.59;100.00;100123.13;683348;28;1011;-45
2022/06/09 00:26:07;;;;;;;8.85;3.20;;;;;;;12.58;100.00;100124.84;684704;28;1333;-43
2022/06/09 00:26:29;;;;;;;8.45;3.40;;;;;;;12.57;100.00;100123.16;685214;28;1227;-45
2022/06/09 00:26:49;;;;;;;8.80;3.40;;;;;;;12.54;100.00;100117.94;685193;28;1282;-49
2022/06/09 00:27:10;;;;;;;10.88;3.35;;;;;;;12.52;100.00;100119.75;682462;28;1617;-45
2022/06/09 00:27:30;;;;;;;8.90;3.30;;;;;;;12.52;100.00;100127.63;681534;28;1813;-44
2022/06/09 00:27:51;;;;;;;9.70;3.10;;;;;;;12.53;100.00;100124.13;680087;28;1181;-45
2022/06/09 00:28:12;;;;;;;7.87;3.10;;;;;;;12.51;100.00;100125.88;680908;28;4316;-45
2022/06/09 00:28:33;;;;;;;7.95;2.95;;;;;;;12.51;100.00;100119.78;680184;28;969;-45
2022/06/09 00:28:53;;;;;;;8.27;3.17;;;;;;;12.51;100.00;100123.25;679968;28;1378;-45
2022/06/09 00:29:14;;;;;;;10.52;3.15;;;;;;;12.49;100.00;100122.44;682482;28;920;-46
2022/06/09 00:29:34;;;;;;;9.25;2.92;;;;;;;12.47;100.00;100126.00;682333;28;1457;-43
2022/06/09 00:29:55;;;;;;;9.70;3.33;;;;;;;12.45;100.00;100126.03;682293;28;1067;-44
2022/06/09 00:30:17;;;;;;;9.40;3.15;;;;;;;12.48;100.00;100130.34;682936;28;1199;-43
2022/06/09 00:30:37;;;;;;;10.70;2.85;;;;;;;12.49;100.00;100127.69;681771;28;963;-44
2022/06/09 00:30:58;;;;;;;8.90;3.00;;;;;;;12.48;100.00;100125.97;682844;28;1436;-44
2022/06/09 00:31:18;;;;;;;9.25;3.22;;;;;;;12.54;100.00;100131.06;679857;28;4439;-45
2022/06/09 00:31:39;;;;;;;8.43;2.77;;;;;;;12.57;100.00;100130.13;675116;29;1388;-44
2022/06/09 00:31:59;;;;;;;8.00;2.92;;;;;;;12.54;100.00;100128.44;676008;29;1806;-43
2022/06/09 00:32:22;;;;;;;8.03;3.03;;;;;;;12.55;100.00;100127.56;675901;29;822;-45
2022/06/09 00:32:44;;;;;;;7.63;2.72;;;;;;;12.52;100.00;100130.25;675766;29;1276;-43
2022/06/09 00:33:05;;;;;;;8.38;2.88;;;;;;;12.49;100.00;100129.44;677379;29;983;-44
2022/06/09 00:33:25;;;;;;;9.40;2.92;;;;;;;12.48;100.00;100131.19;680698;28;1286;-43
2022/06/09 00:33:46;;;;;;;8.93;3.20;;;;;;;12.47;100.00;100129.47;683320;28;1169;-44
2022/06/09 00:34:06;;;;;;;6.97;2.92;;;;;;;12.46;100.00;100126.88;680792;28;1480;-44
2022/06/09 00:34:26;;;;;;;7.22;2.95;;;;;;;12.42;100.00;100132.19;681516;28;4387;-44
2022/06/09 00:34:47;;;;;;;9.30;3.20;;;;;;;12.39;100.00;100131.38;684614;28;1149;-43
2022/06/09 00:35:08;;;;;;;9.17;2.97;;;;;;;12.38;100.00;100132.31;685158;28;1306;-45
2022/06/09 00:35:29;;;;;;;10.27;3.00;;;;;;;12.38;100.00;100130.53;684293;28;1266;-44
2022/06/09 00:35:49;;;;;;;8.80;2.80;;;;;;;12.38;100.00;100129.69;684536;28;1247;-44
2022/06/09 00:36:10;;;;;;;8.05;3.10;;;;;;;12.38;100.00;100132.31;684801;28;1259;-44
2022/06/09 00:36:31;;;;;;;7.97;3.00;;;;;;;12.37;100.00;100133.19;685478;28;1463;-44
2022/06/09 00:36:55;;;;;;;8.00;3.00;;;;;;;12.35;100.00;100130.59;683645;28;1311;-43
2022/06/09 00:37:15;;;;;;;9.45;3.15;;;;;;;12.34;100.00;100134.13;681548;28;4438;-43
2022/06/09 00:37:35;;;;;;;8.00;3.08;;;;;;;12.34;100.00;100134.13;682450;28;1685;-43
2022/06/09 00:37:56;;;;;;;8.40;2.90;;;;;;;12.34;100.00;100131.50;683368;28;1422;-43
2022/06/09 00:38:16;;;;;;;9.88;3.00;;;;;;;12.36;100.00;100126.22;682348;28;1284;-47
2022/06/09 00:38:37;;;;;;;8.90;3.00;;;;;;;12.34;100.00;100130.63;681415;28;1251;-44
2022/06/09 00:38:58;;;;;;;10.18;3.38;;;;;;;12.32;100.00;100132.41;681838;28;4713;-48
2022/06/09 00:39:18;;;;;;;7.25;3.05;;;;;;;12.31;100.00;100133.31;680269;29;1399;-44
2022/06/09 00:39:39;;;;;;;8.23;3.00;;;;;;;12.32;100.00;100135.03;677016;29;1934;-44
2022/06/09 00:39:59;;;;;;;9.00;3.00;;;;;;;12.30;100.00;100132.44;675283;29;1581;-45
2022/06/09 00:40:21;;;;;;;8.38;2.95;;;;;;;12.25;100.00;100134.28;676561;29;4470;-45
2022/06/09 00:40:41;;;;;;;13.10;3.08;;;;;;;12.22;100.00;100136.97;677233;29;1099;-44
2022/06/09 00:41:02;;;;;;;10.23;3.30;;;;;;;12.17;100.00;100136.19;674602;29;1240;-44
2022/06/09 00:41:23;;;;;;;9.60;3.20;;;;;;;12.18;100.00;100132.69;677885;29;1160;-44
2022/06/09 00:41:44;;;;;;;9.33;3.10;;;;;;;12.18;100.00;100140.56;677565;28;1109;-45
2022/06/09 00:42:05;;;;;;;8.40;2.88;;;;;;;12.20;100.00;100137.00;681207;28;1255;-44
2022/06/09 00:42:26;;;;;;;8.27;2.85;;;;;;;12.24;100.00;100136.06;680660;28;1256;-43
2022/06/09 00:42:47;;;;;;;10.30;3.20;;;;;;;12.25;100.00;100136.91;680596;28;1519;-45
2022/06/09 00:43:08;;;;;;;8.97;3.10;;;;;;;12.24;100.00;100143.91;681839;28;5257;-43
2022/06/09 00:43:32;;;;;;;8.60;3.10;;;;;;;12.23;100.00;100138.72;682378;28;1148;-43
2022/06/09 00:43:53;;;;;;;10.35;3.40;;;;;;;12.22;100.00;100140.44;683030;28;1259;-43
2022/06/09 00:44:15;;;;;;;9.33;3.10;;;;;;;12.21;100.00;100137.88;682311;28;1374;-44
2022/06/09 00:44:39;;;;;;;9.18;3.10;;;;;;;12.23;100.00;100138.72;682907;28;1248;-43
2022/06/09 00:45:33;;;;;;;9.55;3.25;;;;;;;12.22;100.00;100137.84;681815;28;1458;-44
2022/06/09 00:46:05;;;;;;;8.68;2.80;;;;;;;12.24;100.00;100143.06;681014;28;1231;-45
2022/06/09 00:46:30;;;;;;;8.00;3.25;;;;;;;12.23;100.00;100142.19;680913;28;4525;-43
2022/06/09 00:47:00;;;;;;;7.68;2.90;;;;;;;12.22;100.00;100140.44;684195;28;1966;-43
2022/06/09 00:47:26;;;;;;;7.68;2.90;;;;;;;12.26;100.00;100141.28;684954;28;1243;-44
2022/06/09 00:47:47;;;;;;;9.05;2.92;;;;;;;12.24;100.00;100143.91;683395;28;960;-45
2022/06/09 00:48:20;;;;;;;8.30;2.80;;;;;;;12.25;100.00;100140.41;684810;28;888;-45
2022/06/09 00:48:49;;;;;;;9.30;3.17;;;;;;;12.22;100.00;100150.94;685231;28;1313;-43
2022/06/09 00:49:23;;;;;;;8.10;2.60;;;;;;;12.21;100.00;100141.38;684642;28;4557;-43
2022/06/09 00:49:55;;;;;;;9.98;2.70;;;;;;;12.18;100.00;100146.66;682381;28;937;-43
2022/06/09 00:50:18;;;;;;;9.35;2.83;;;;;;;12.20;100.00;100146.66;683331;28;1235;-43
2022/06/09 00:50:40;;;;;;;6.70;2.75;;;;;;;12.20;100.00;100152.75;682401;28;1324;-43
2022/06/09 00:51:10;;;;;;;8.40;2.85;;;;;;;12.18;100.00;100157.13;683350;28;1561;-44
2022/06/09 00:51:41;;;;;;;8.52;3.20;;;;;;;12.19;100.00;100158.88;682885;28;826;-45
2022/06/09 00:52:06;;;;;;;9.02;2.92;;;;;;;12.18;100.00;100154.50;682148;28;1107;-44
2022/06/09 00:52:35;;;;;;;8.73;3.08;;;;;;;12.15;100.00;100157.19;681857;28;4837;-43
2022/06/09 00:53:01;;;;;;;8.82;3.38;;;;;;;12.14;100.00;100152.84;683029;28;1245;-46
2022/06/09 00:53:28;;;;;;;9.63;2.80;;;;;;;12.14;100.00;100152.84;683182;28;1325;-46
2022/06/09 00:53:53;;;;;;;9.63;2.90;;;;;;;12.16;100.00;100160.69;682152;28;1054;-44
2022/06/09 00:54:21;;;;;;;8.20;2.95;;;;;;;12.20;100.00;100157.13;682936;28;1211;-43
2022/06/09 00:54:47;;;;;;;8.68;2.80;;;;;;;12.18;100.00;100157.13;682174;28;1197;-43
2022/06/09 00:55:15;;;;;;;9.18;2.80;;;;;;;12.20;100.00;100159.75;682464;28;4540;-45
2022/06/09 00:55:36;;;;;;;10.25;3.35;;;;;;;12.21;100.00;100158.84;681578;28;1261;-43
2022/06/09 00:56:00;;;;;;;10.18;2.90;;;;;;;12.20;100.00;100159.75;682088;28;1059;-44
2022/06/09 00:56:21;;;;;;;11.35;3.22;;;;;;;12.17;100.00;100158.03;681499;28;1047;-44
2022/06/09 00:56:48;;;;;;;10.23;3.10;;;;;;;12.18;100.00;100151.88;683219;28;1294;-47
2022/06/09 00:57:11;;;;;;;8.18;2.85;;;;;;;12.20;100.00;100160.59;681964;28;1164;-44
2022/06/09 00:57:43;;;;;;;8.05;2.90;;;;;;;12.18;100.00;100157.13;681620;28;1066;-44
2022/06/09 00:58:10;;;;;;;10.52;2.80;;;;;;;12.18;100.00;100156.28;680070;29;2057;-44
2022/06/09 00:58:34;;;;;;;7.95;3.10;;;;;;;12.18;100.00;100159.75;679659;29;6291;-44
2022/06/09 00:58:56;;;;;;;9.55;2.90;;;;;;;12.23;100.00;100155.28;679980;28;1104;-44
2022/06/09 00:59:20;;;;;;;8.45;2.90;;;;;;;12.23;100.00;100157.91;677784;29;1540;-45
2022/06/09 00:59:44;;;;;;;9.25;2.80;;;;;;;12.23;100.00;100163.16;677923;29;1919;-43
2022/06/09 01:00:12;;;;;;;8.45;2.60;;;;;;;12.22;100.00;100165.81;677689;29;1244;-44
2022/06/09 01:00:55;;;;;;;7.07;2.80;;;;;;;12.18;100.00;100158.91;677370;28;1755;-44
2022/06/09 01:01:17;;;;;;;12.80;3.20;;;;;;;12.25;100.00;100164.00;682531;28;4494;-44
2022/06/09 01:01:39;;;;;;;12.60;3.13;;;;;;;12.29;100.00;100163.94;681375;28;928;-43
2022/06/09 01:02:01;;;;;;;11.95;3.00;;;;;;;12.28;100.00;100155.22;682511;28;1117;-46
2022/06/09 01:02:23;;;;;;;11.75;3.38;;;;;;;12.26;100.00;100162.22;682009;28;1132;-45
2022/06/09 01:02:45;;;;;;;8.95;3.40;;;;;;;12.24;100.00;100169.28;682596;28;1309;-46
2022/06/09 01:03:06;;;;;;;8.25;2.70;;;;;;;12.22;100.00;100166.66;682029;28;995;-43
2022/06/09 01:03:33;;;;;;;9.60;2.83;;;;;;;12.24;100.00;100162.25;682650;28;1232;-45
2022/06/09 01:04:08;;;;;;;9.32;3.00;;;;;;;12.25;100.00;100161.38;677951;29;949;-44
2022/06/09 01:04:31;;;;;;;8.05;2.80;;;;;;;12.23;100.00;100163.16;679735;29;4932;-44
2022/06/09 01:04:53;;;;;;;8.10;2.70;;;;;;;12.21;100.00;100158.84;678963;28;1259;-44
2022/06/09 01:05:17;;;;;;;8.15;3.10;;;;;;;12.18;100.00;100161.53;680725;29;1284;-43
2022/06/09 01:05:40;;;;;;;8.13;2.92;;;;;;;12.17;100.00;100165.03;680663;28;1473;-44
2022/06/09 01:06:07;;;;;;;8.07;2.88;;;;;;;12.16;100.00;100166.78;681563;28;1181;-45
2022/06/09 01:06:33;;;;;;;8.77;2.90;;;;;;;12.17;100.00;100157.16;682526;28;1345;-45
2022/06/09 01:06:58;;;;;;;9.00;2.88;;;;;;;12.16;100.00;100161.56;681189;28;1573;-43
2022/06/09 01:07:25;;;;;;;9.52;2.80;;;;;;;12.15;100.00;100159.81;681961;28;4694;-43
2022/06/09 01:07:50;;;;;;;11.75;2.95;;;;;;;12.13;100.00;100166.84;682518;28;939;-44
2022/06/09 01:08:12;;;;;;;10.57;2.83;;;;;;;12.13;100.00;100164.25;683298;28;1267;-43
2022/06/09 01:08:38;;;;;;;11.73;3.17;;;;;;;12.14;100.00;100168.56;682050;28;1062;-44
2022/06/09 01:09:21;;;;;;;9.38;3.00;;;;;;;12.14;100.00;100163.31;681537;28;1043;-43
2022/06/09 01:09:41;;;;;;;10.40;2.78;;;;;;;12.18;100.00;100170.22;682159;28;1256;-44
2022/06/09 01:10:03;;;;;;;10.20;3.00;;;;;;;12.22;100.00;100174.53;680691;28;1031;-43
2022/06/09 01:10:24;;;;;;;8.57;2.75;;;;;;;12.21;100.00;100169.31;685781;28;4329;-43
2022/06/09 01:10:44;;;;;;;9.70;2.80;;;;;;;12.21;100.00;100167.56;685209;28;1179;-43
2022/06/09 01:11:05;;;;;;;12.27;3.03;;;;;;;12.18;100.00;100170.22;685630;28;1220;-43
2022/06/09 01:11:26;;;;;;;9.60;3.00;;;;;;;12.16;100.00;100176.41;686156;28;1310;-43
2022/06/09 01:11:51;;;;;;;10.18;3.00;;;;;;;12.15;100.00;100170.28;685135;28;1163;-46
2022/06/09 01:12:28;;;;;;;8.70;2.80;;;;;;;12.14;100.00;100172.94;685128;28;1176;-45
2022/06/09 01:12:49;;;;;;;10.18;2.95;;;;;;;12.10;100.00;100172.13;682403;28;3791;-44
2022/06/09 01:13:09;;;;;;;11.07;3.08;;;;;;;12.08;100.00;100174.78;681765;28;4447;-43
2022/06/09 01:13:31;;;;;;;8.73;2.90;;;;;;;12.07;100.00;100172.19;681805;28;1226;-46
2022/06/09 01:13:55;;;;;;;8.15;2.78;;;;;;;12.07;100.00;100174.81;682734;28;1547;-44
2022/06/09 01:14:20;;;;;;;9.50;3.00;;;;;;;12.08;100.00;100180.03;681789;28;1204;-45
2022/06/09 01:14:41;;;;;;;9.02;3.10;;;;;;;12.09;100.00;100175.66;682645;28;1097;-43
2022/06/09 01:15:45;;;;;;;8.27;3.00;;;;;;;12.07;100.00;100174.81;679734;29;1157;-44
2022/06/09 01:16:18;;;;;;;12.60;3.45;;;;;;;12.07;100.00;100177.44;680116;29;1180;-46
2022/06/09 01:17:01;;;;;;;9.43;2.85;;;;;;;12.07;100.00;100180.06;681419;28;4854;-43
2022/06/09 01:17:37;;;;;;;8.13;2.90;;;;;;;12.14;100.00;100178.19;683989;28;980;-43
2022/06/09 01:18:19;;;;;;;8.32;3.20;;;;;;;12.16;100.00;100177.28;682611;28;1156;-44
2022/06/09 01:18:54;;;;;;;12.15;3.28;;;;;;;12.13;100.00;100182.59;681120;28;1362;-43
2022/06/09 01:19:28;;;;;;;9.45;2.92;;;;;;;12.11;100.00;100176.50;682414;28;4666;-44
2022/06/09 01:20:19;;;;;;;8.52;3.00;;;;;;;12.11;100.00;100179.09;684130;28;1916;-43
2022/06/09 01:20:48;;;;;;;9.57;3.00;;;;;;;12.11;100.00;100179.09;686016;28;809;-44
2022/06/09 01:21:17;;;;;;;12.02;3.30;;;;;;;12.08;100.00;100180.03;683293;28;1350;-44
2022/06/09 01:21:57;;;;;;;10.30;2.80;;;;;;;12.09;100.00;100178.28;680068;29;1298;-43
2022/06/09 01:22:52;;;;;;;8.88;2.95;;;;;;;12.08;100.00;100177.41;679823;29;4521;-45
2022/06/09 01:23:15;;;;;;;11.20;3.08;;;;;;;12.07;100.00;100183.56;682678;28;1445;-43
2022/06/09 01:24:03;;;;;;;11.50;3.08;;;;;;;12.07;100.00;100182.69;682390;28;1353;-43
2022/06/09 01:24:34;;;;;;;10.13;3.42;;;;;;;12.08;100.00;100187.88;682144;28;1301;-43
2022/06/09 01:25:20;;;;;;;9.10;3.35;;;;;;;12.11;100.00;100184.34;682475;28;1083;-46
2022/06/09 01:25:52;;;;;;;10.73;3.00;;;;;;;12.10;100.00;100182.63;682364;28;4751;-47
2022/06/09 01:26:24;;;;;;;8.90;3.10;;;;;;;12.09;100.00;100187.00;683880;28;1687;-44
2022/06/09 01:27:13;;;;;;;9.57;2.85;;;;;;;12.10;100.00;100182.63;681559;28;1530;-43
2022/06/09 01:27:39;;;;;;;8.63;3.08;;;;;;;12.11;100.00;100184.34;681235;28;1505;-43
2022/06/09 01:28:25;;;;;;;7.20;2.85;;;;;;;12.08;100.00;100185.25;679801;28;1127;-43
2022/06/09 01:28:52;;;;;;;9.75;3.08;;;;;;;12.08;100.00;100192.28;681502;28;4951;-43
2022/06/09 01:29:38;;;;;;;9.85;3.08;;;;;;;12.08;100.00;100189.66;682590;28;1576;-44
2022/06/09 01:30:06;;;;;;;10.32;3.20;;;;;;;12.07;100.00;100193.16;681461;28;1387;-45
2022/06/09 01:30:32;;;;;;;10.77;3.10;;;;;;;12.08;100.00;100184.41;682818;28;1131;-43
2022/06/09 01:30:55;;;;;;;9.70;3.30;;;;;;;12.08;100.00;100184.41;681671;28;1119;-45
2022/06/09 01:31:23;;;;;;;9.23;3.00;;;;;;;12.08;100.00;100184.41;681636;28;4589;-43
2022/06/09 01:31:50;;;;;;;10.55;2.72;;;;;;;12.09;100.00;100187.00;680756;28;989;-45
2022/06/09 01:32:22;;;;;;;10.98;3.08;;;;;;;12.11;100.00;100186.97;681890;28;1601;-44
2022/06/09 01:32:54;;;;;;;8.77;2.80;;;;;;;12.11;100.00;100189.59;681460;28;1022;-44
2022/06/09 01:33:27;;;;;;;11.55;3.63;;;;;;;12.16;100.00;100181.66;681594;28;1275;-43
2022/06/09 01:33:52;;;;;;;9.90;3.42;;;;;;;12.21;100.00;100180.69;681274;28;1248;-45
2022/06/09 01:34:35;;;;;;;11.45;3.60;;;;;;;12.26;100.00;100185.81;680152;28;4378;-44
2022/06/09 01:35:30;;;;;;;7.97;2.92;;;;;;;12.29;100.00;100185.75;682012;28;1219;-43
2022/06/09 01:35:56;;;;;;;12.60;3.30;;;;;;;12.34;100.00;100189.16;671545;29;1389;-45
2022/06/09 01:36:27;;;;;;;8.02;3.20;;;;;;;12.44;100.00;100182.81;678176;29;1330;-43
2022/06/09 01:36:54;;;;;;;9.27;3.00;;;;;;;12.41;100.00;100187.28;678133;28;1688;-44
2022/06/09 01:37:20;;;;;;;8.82;2.88;;;;;;;12.41;100.00;100184.66;679404;28;4332;-44
2022/06/09 01:37:45;;;;;;;7.45;3.20;;;;;;;12.42;100.00;100184.63;682346;28;1565;-45
2022/06/09 01:38:05;;;;;;;9.02;3.03;;;;;;;12.42;100.00;100181.16;681058;28;1223;-46
2022/06/09 01:38:25;;;;;;;9.23;3.07;;;;;;;12.42;100.00;100182.00;681753;28;1240;-44
2022/06/09 01:38:53;;;;;;;9.93;2.90;;;;;;;12.44;100.00;100180.19;682984;28;1052;-44
2022/06/09 01:39:14;;;;;;;9.60;2.90;;;;;;;12.49;100.00;100184.50;681796;28;4947;-43
2022/06/09 01:39:46;;;;;;;10.87;2.90;;;;;;;12.43;100.00;100182.84;682957;28;1956;-47
2022/06/09 01:40:09;;;;;;;8.23;2.78;;;;;;;12.42;100.00;100181.16;681338;28;1342;-43
2022/06/09 01:40:30;;;;;;;6.82;2.72;;;;;;;12.37;100.00;100180.38;680313;28;4893;-45
2022/06/09 01:40:50;;;;;;;8.90;2.72;;;;;;;12.33;100.00;100183.94;678649;28;1025;-44
2022/06/09 01:41:11;;;;;;;9.17;2.80;;;;;;;12.35;100.00;100187.38;679348;29;1276;-44
2022/06/09 01:41:34;;;;;;;10.07;2.80;;;;;;;12.32;100.00;100183.06;678576;29;1236;-43
2022/06/09 01:41:54;;;;;;;8.63;2.50;;;;;;;12.29;100.00;100183.13;679032;28;1016;-44
2022/06/09 01:42:23;;;;;;;8.53;2.60;;;;;;;12.25;100.00;100178.84;679245;28;1698;-44
2022/06/09 01:42:49;;;;;;;9.85;3.00;;;;;;;12.32;100.00;100184.84;681786;28;1418;-43
2022/06/09 01:43:11;;;;;;;8.25;2.80;;;;;;;12.33;100.00;100186.56;681776;28;4330;-45
2022/06/09 01:43:32;;;;;;;8.48;2.70;;;;;;;12.29;100.00;100183.13;682520;28;1248;-44
2022/06/09 01:43:55;;;;;;;9.60;2.77;;;;;;;12.27;100.00;100182.31;682956;28;1069;-46
2022/06/09 01:44:18;;;;;;;13.55;2.88;;;;;;;12.24;100.00;100185.84;683303;28;1410;-44
2022/06/09 01:44:38;;;;;;;10.18;2.80;;;;;;;12.23;100.00;100184.13;683548;28;1431;-43
2022/06/09 01:45:22;;;;;;;9.30;3.20;;;;;;;12.23;100.00;100189.34;683157;28;1092;-44
2022/06/09 01:45:54;;;;;;;11.63;2.90;;;;;;;12.22;100.00;100194.63;680352;28;1038;-44
2022/06/09 01:46:32;;;;;;;9.15;2.70;;;;;;;12.19;100.00;100187.69;681694;28;4439;-45
2022/06/09 01:46:54;;;;;;;8.90;2.90;;;;;;;12.15;100.00;100191.25;681092;28;1577;-43
2022/06/09 01:47:19;;;;;;;11.27;3.35;;;;;;;12.16;100.00;100187.75;681987;28;817;-45
2022/06/09 01:47:56;;;;;;;8.85;2.58;;;;;;;12.18;100.00;100190.34;683303;28;789;-47
2022/06/09 01:48:20;;;;;;;9.85;2.58;;;;;;;12.15;100.00;100186.03;682258;28;1464;-45
2022/06/09 01:48:40;;;;;;;9.48;2.70;;;;;;;12.13;100.00;100192.19;681965;28;1370;-43
2022/06/09 01:49:24;;;;;;;9.57;2.63;;;;;;;12.11;100.00;100194.81;682938;28;1433;-43
2022/06/09 01:49:46;;;;;;;7.85;2.50;;;;;;;12.07;100.00;100182.69;680927;28;5033;-43
2022/06/09 01:50:13;;;;;;;7.65;2.45;;;;;;;12.06;100.00;100194.94;682035;28;1251;-44
2022/06/09 01:50:51;;;;;;;9.05;3.00;;;;;;;12.08;100.00;100190.50;681719;28;1367;-44
2022/06/09 01:51:15;;;;;;;10.27;2.60;;;;;;;12.06;100.00;100192.31;682311;28;1605;-43
2022/06/09 01:51:40;;;;;;;9.18;2.72;;;;;;;12.06;100.00;100186.22;682001;28;809;-45
2022/06/09 01:52:02;;;;;;;10.45;2.72;;;;;;;12.06;100.00;100183.59;683586;28;1079;-44
2022/06/09 01:52:25;;;;;;;11.85;2.60;;;;;;;12.05;100.00;100190.56;681670;28;4382;-43
2022/06/09 01:52:46;;;;;;;10.32;2.70;;;;;;;12.07;100.00;100186.19;680979;28;1551;-46
2022/06/09 01:53:12;;;;;;;8.52;2.55;;;;;;;12.06;100.00;100188.84;682687;28;1363;-43
2022/06/09 01:53:37;;;;;;;8.25;2.50;;;;;;;12.04;100.00;100183.59;682645;28;1283;-44
2022/06/09 01:54:03;;;;;;;9.95;3.05;;;;;;;12.02;100.00;100189.78;681492;28;1080;-44
2022/06/09 01:54:34;;;;;;;11.00;2.83;;;;;;;12.03;100.00;100195.00;680069;28;1631;-44
2022/06/09 01:54:56;;;;;;;9.38;2.70;;;;;;;12.03;100.00;100188.88;681494;28;1072;-44
2022/06/09 01:55:19;;;;;;;7.57;2.70;;;;;;;12.04;100.00;100188.84;681727;28;4738;-43
2022/06/09 01:55:51;;;;;;;9.52;2.72;;;;;;;12.02;100.00;100190.63;682937;28;1303;-44
2022/06/09 01:56:18;;;;;;;8.90;2.80;;;;;;;11.99;100.00;100192.44;682860;28;1369;-44
2022/06/09 01:56:49;;;;;;;9.23;2.83;;;;;;;12.02;100.00;100195.88;682858;28;1271;-47
2022/06/09 01:57:15;;;;;;;11.23;3.35;;;;;;;12.01;100.00;100188.03;682101;28;1056;-45
2022/06/09 01:57:38;;;;;;;11.95;2.80;;;;;;;12.00;100.00;100189.78;682482;28;1192;-44
2022/06/09 01:58:01;;;;;;;9.75;2.90;;;;;;;12.00;100.00;100195.03;683462;28;1277;-45
2022/06/09 01:58:26;;;;;;;10.80;3.05;;;;;;;11.98;100.00;100194.19;682100;28;4322;-45
2022/06/09 01:59:07;;;;;;;9.10;2.88;;;;;;;12.01;100.00;100193.28;683637;28;1169;-44
2022/06/09 01:59:53;;;;;;;9.38;2.60;;;;;;;11.99;100.00;100192.44;684563;28;1071;-43
2022/06/09 02:00:16;;;;;;;14.73;3.08;;;;;;;11.97;100.00;100194.22;683832;28;1199;-44